sensor_id;sensor_type;location;lat;lon;timestamp;P1;durP1;ratioP1;P2;durP2;ratioP2
11927;SDS011;6023;47.070;15.126;2023-03-13T00:02:10;7.67;;;5.20;;
11927;SDS011;6023;47.070;15.126;2023-03-13T00:04:39;5.57;;;4.20;;
11927;SDS011;6023;47.070;15.126;2023-03-13T00:07:07;5.70;;;4.13;;
11927;SDS011;6023;47.070;15.126;2023-03-13T00:09:38;7.00;;;4.27;;
11927;SDS011;6023;47.070;15.126;2023-03-13T00:12:07;7.77;;;4.37;;
11927;SDS011;6023;47.070;15.126;2023-03-13T00:14:36;5.53;;;4.57;;
11927;SDS011;6023;47.070;15.126;2023-03-13T00:17:04;6.90;;;4.70;;
11927;SDS011;6023;47.070;15.126;2023-03-13T00:19:34;6.63;;;4.60;;
11927;SDS011;6023;47.070;15.126;2023-03-13T00:22:03;5.87;;;4.27;;
11927;SDS011;6023;47.070;15.126;2023-03-13T00:24:31;5.20;;;4.47;;
11927;SDS011;6023;47.070;15.126;2023-03-13T00:27:01;6.83;;;4.37;;
11927;SDS011;6023;47.070;15.126;2023-03-13T00:29:31;5.87;;;4.10;;
11927;SDS011;6023;47.070;15.126;2023-03-13T00:32:00;8.93;;;4.20;;
11927;SDS011;6023;47.070;15.126;2023-03-13T00:34:29;5.90;;;4.03;;
11927;SDS011;6023;47.070;15.126;2023-03-13T00:36:57;6.73;;;4.10;;
11927;SDS011;6023;47.070;15.126;2023-03-13T00:39:26;6.37;;;4.47;;
11927;SDS011;6023;47.070;15.126;2023-03-13T00:41:54;6.77;;;4.60;;
11927;SDS011;6023;47.070;15.126;2023-03-13T00:44:24;6.53;;;3.83;;
11927;SDS011;6023;47.070;15.126;2023-03-13T00:46:52;5.90;;;4.30;;
11927;SDS011;6023;47.070;15.126;2023-03-13T00:49:21;5.60;;;4.20;;
11927;SDS011;6023;47.070;15.126;2023-03-13T00:51:49;5.03;;;3.93;;
11927;SDS011;6023;47.070;15.126;2023-03-13T00:54:18;5.97;;;4.03;;
11927;SDS011;6023;47.070;15.126;2023-03-13T00:56:46;6.37;;;4.20;;
11927;SDS011;6023;47.070;15.126;2023-03-13T00:59:14;6.40;;;4.57;;
11927;SDS011;6023;47.070;15.126;2023-03-13T01:01:44;6.53;;;4.13;;
11927;SDS011;6023;47.070;15.126;2023-03-13T01:04:13;6.63;;;4.60;;
11927;SDS011;6023;47.070;15.126;2023-03-13T01:06:42;7.53;;;5.10;;
11927;SDS011;6023;47.070;15.126;2023-03-13T01:09:11;6.57;;;5.00;;
11927;SDS011;6023;47.070;15.126;2023-03-13T01:11:41;5.03;;;3.83;;
11927;SDS011;6023;47.070;15.126;2023-03-13T01:14:11;4.93;;;3.50;;
11927;SDS011;6023;47.070;15.126;2023-03-13T01:16:40;4.10;;;3.20;;
11927;SDS011;6023;47.070;15.126;2023-03-13T01:19:11;4.60;;;3.40;;
11927;SDS011;6023;47.070;15.126;2023-03-13T01:21:41;3.80;;;2.93;;
11927;SDS011;6023;47.070;15.126;2023-03-13T01:24:11;4.47;;;3.30;;
11927;SDS011;6023;47.070;15.126;2023-03-13T01:26:39;6.30;;;4.30;;
11927;SDS011;6023;47.070;15.126;2023-03-13T01:29:08;5.40;;;4.27;;
11927;SDS011;6023;47.070;15.126;2023-03-13T01:31:36;6.93;;;4.63;;
11927;SDS011;6023;47.070;15.126;2023-03-13T01:34:05;6.90;;;4.50;;
11927;SDS011;6023;47.070;15.126;2023-03-13T01:36:36;7.70;;;5.03;;
11927;SDS011;6023;47.070;15.126;2023-03-13T01:39:05;7.03;;;4.80;;
11927;SDS011;6023;47.070;15.126;2023-03-13T01:41:33;6.03;;;4.43;;
11927;SDS011;6023;47.070;15.126;2023-03-13T01:44:02;6.47;;;4.47;;
11927;SDS011;6023;47.070;15.126;2023-03-13T01:46:31;6.03;;;3.97;;
11927;SDS011;6023;47.070;15.126;2023-03-13T01:49:00;5.37;;;4.43;;
11927;SDS011;6023;47.070;15.126;2023-03-13T01:51:31;5.87;;;3.87;;
11927;SDS011;6023;47.070;15.126;2023-03-13T01:54:03;5.33;;;4.00;;
11927;SDS011;6023;47.070;15.126;2023-03-13T01:56:36;4.90;;;3.90;;
11927;SDS011;6023;47.070;15.126;2023-03-13T01:59:07;6.10;;;4.30;;
11927;SDS011;6023;47.070;15.126;2023-03-13T02:01:37;5.10;;;3.53;;
11927;SDS011;6023;47.070;15.126;2023-03-13T02:04:06;5.50;;;3.60;;
11927;SDS011;6023;47.070;15.126;2023-03-13T02:06:35;5.33;;;3.90;;
11927;SDS011;6023;47.070;15.126;2023-03-13T02:09:08;4.60;;;3.67;;
11927;SDS011;6023;47.070;15.126;2023-03-13T02:11:43;5.47;;;3.90;;
11927;SDS011;6023;47.070;15.126;2023-03-13T02:14:14;6.13;;;4.00;;
11927;SDS011;6023;47.070;15.126;2023-03-13T02:16:47;5.27;;;3.50;;
11927;SDS011;6023;47.070;15.126;2023-03-13T02:19:18;5.73;;;3.80;;
11927;SDS011;6023;47.070;15.126;2023-03-13T02:21:51;5.50;;;3.60;;
11927;SDS011;6023;47.070;15.126;2023-03-13T02:24:27;5.80;;;3.90;;
11927;SDS011;6023;47.070;15.126;2023-03-13T02:27:00;6.67;;;3.77;;
11927;SDS011;6023;47.070;15.126;2023-03-13T02:29:29;5.93;;;3.80;;
11927;SDS011;6023;47.070;15.126;2023-03-13T02:31:58;5.90;;;3.80;;
11927;SDS011;6023;47.070;15.126;2023-03-13T02:34:27;5.70;;;3.70;;
11927;SDS011;6023;47.070;15.126;2023-03-13T02:36:58;4.60;;;3.43;;
11927;SDS011;6023;47.070;15.126;2023-03-13T02:39:27;4.83;;;3.40;;
11927;SDS011;6023;47.070;15.126;2023-03-13T02:41:57;4.87;;;3.40;;
11927;SDS011;6023;47.070;15.126;2023-03-13T02:44:28;4.40;;;3.30;;
11927;SDS011;6023;47.070;15.126;2023-03-13T02:46:57;4.23;;;3.50;;
11927;SDS011;6023;47.070;15.126;2023-03-13T02:49:26;4.90;;;3.40;;
11927;SDS011;6023;47.070;15.126;2023-03-13T02:51:56;4.43;;;3.40;;
11927;SDS011;6023;47.070;15.126;2023-03-13T02:54:27;3.80;;;3.10;;
11927;SDS011;6023;47.070;15.126;2023-03-13T02:56:57;3.97;;;3.20;;
11927;SDS011;6023;47.070;15.126;2023-03-13T02:59:30;8.87;;;5.90;;
11927;SDS011;6023;47.070;15.126;2023-03-13T03:01:59;18.77;;;12.90;;
11927;SDS011;6023;47.070;15.126;2023-03-13T03:04:27;16.77;;;12.30;;
11927;SDS011;6023;47.070;15.126;2023-03-13T03:06:56;7.27;;;5.33;;
11927;SDS011;6023;47.070;15.126;2023-03-13T03:09:25;6.87;;;4.27;;
11927;SDS011;6023;47.070;15.126;2023-03-13T03:11:53;4.27;;;3.33;;
11927;SDS011;6023;47.070;15.126;2023-03-13T03:14:23;3.97;;;3.37;;
11927;SDS011;6023;47.070;15.126;2023-03-13T03:16:51;4.10;;;3.33;;
11927;SDS011;6023;47.070;15.126;2023-03-13T03:19:20;5.00;;;3.43;;
11927;SDS011;6023;47.070;15.126;2023-03-13T03:21:48;4.93;;;3.50;;
11927;SDS011;6023;47.070;15.126;2023-03-13T03:24:17;4.03;;;2.93;;
11927;SDS011;6023;47.070;15.126;2023-03-13T03:26:45;4.90;;;3.50;;
11927;SDS011;6023;47.070;15.126;2023-03-13T03:29:14;5.50;;;3.57;;
11927;SDS011;6023;47.070;15.126;2023-03-13T03:31:43;4.57;;;3.50;;
11927;SDS011;6023;47.070;15.126;2023-03-13T03:34:12;4.70;;;3.30;;
11927;SDS011;6023;47.070;15.126;2023-03-13T03:36:40;5.80;;;4.00;;
11927;SDS011;6023;47.070;15.126;2023-03-13T03:39:10;5.03;;;3.83;;
11927;SDS011;6023;47.070;15.126;2023-03-13T03:41:38;4.83;;;3.53;;
11927;SDS011;6023;47.070;15.126;2023-03-13T03:44:07;5.70;;;4.00;;
11927;SDS011;6023;47.070;15.126;2023-03-13T03:46:35;5.93;;;4.20;;
11927;SDS011;6023;47.070;15.126;2023-03-13T03:49:05;6.30;;;3.93;;
11927;SDS011;6023;47.070;15.126;2023-03-13T03:51:34;5.60;;;3.77;;
11927;SDS011;6023;47.070;15.126;2023-03-13T03:54:02;6.23;;;3.93;;
11927;SDS011;6023;47.070;15.126;2023-03-13T03:56:31;5.10;;;3.80;;
11927;SDS011;6023;47.070;15.126;2023-03-13T03:58:59;5.50;;;3.97;;
11927;SDS011;6023;47.070;15.126;2023-03-13T04:01:28;4.93;;;3.77;;
11927;SDS011;6023;47.070;15.126;2023-03-13T04:03:56;6.30;;;4.50;;
11927;SDS011;6023;47.070;15.126;2023-03-13T04:06:26;5.63;;;4.10;;
11927;SDS011;6023;47.070;15.126;2023-03-13T04:08:55;5.97;;;4.30;;
11927;SDS011;6023;47.070;15.126;2023-03-13T04:11:23;6.47;;;4.27;;
11927;SDS011;6023;47.070;15.126;2023-03-13T04:13:51;5.50;;;4.07;;
11927;SDS011;6023;47.070;15.126;2023-03-13T04:16:20;5.93;;;4.20;;
11927;SDS011;6023;47.070;15.126;2023-03-13T04:18:49;6.53;;;4.33;;
11927;SDS011;6023;47.070;15.126;2023-03-13T04:21:17;5.10;;;3.90;;
11927;SDS011;6023;47.070;15.126;2023-03-13T04:23:47;5.23;;;4.20;;
11927;SDS011;6023;47.070;15.126;2023-03-13T04:26:16;4.93;;;3.93;;
11927;SDS011;6023;47.070;15.126;2023-03-13T04:28:44;4.63;;;3.73;;
11927;SDS011;6023;47.070;15.126;2023-03-13T04:31:13;6.47;;;3.97;;
11927;SDS011;6023;47.070;15.126;2023-03-13T04:33:41;6.07;;;4.00;;
11927;SDS011;6023;47.070;15.126;2023-03-13T04:36:10;6.03;;;4.00;;
11927;SDS011;6023;47.070;15.126;2023-03-13T04:38:38;5.57;;;3.90;;
11927;SDS011;6023;47.070;15.126;2023-03-13T04:41:08;5.37;;;3.70;;
11927;SDS011;6023;47.070;15.126;2023-03-13T04:43:37;5.70;;;3.60;;
11927;SDS011;6023;47.070;15.126;2023-03-13T04:46:05;7.27;;;3.97;;
11927;SDS011;6023;47.070;15.126;2023-03-13T04:48:34;5.23;;;3.87;;
11927;SDS011;6023;47.070;15.126;2023-03-13T04:51:02;5.07;;;3.63;;
11927;SDS011;6023;47.070;15.126;2023-03-13T04:53:31;6.27;;;3.80;;
11927;SDS011;6023;47.070;15.126;2023-03-13T04:55:59;7.00;;;3.80;;
11927;SDS011;6023;47.070;15.126;2023-03-13T04:58:29;5.70;;;3.30;;
11927;SDS011;6023;47.070;15.126;2023-03-13T05:00:58;6.13;;;3.40;;
11927;SDS011;6023;47.070;15.126;2023-03-13T05:03:26;5.03;;;3.47;;
11927;SDS011;6023;47.070;15.126;2023-03-13T05:05:55;6.10;;;3.87;;
11927;SDS011;6023;47.070;15.126;2023-03-13T05:08:23;4.77;;;3.70;;
11927;SDS011;6023;47.070;15.126;2023-03-13T05:10:52;5.90;;;3.67;;
11927;SDS011;6023;47.070;15.126;2023-03-13T05:13:20;5.87;;;3.77;;
11927;SDS011;6023;47.070;15.126;2023-03-13T05:15:50;5.20;;;3.73;;
11927;SDS011;6023;47.070;15.126;2023-03-13T05:18:18;5.97;;;3.50;;
11927;SDS011;6023;47.070;15.126;2023-03-13T05:20:47;5.90;;;3.70;;
11927;SDS011;6023;47.070;15.126;2023-03-13T05:23:15;5.67;;;3.90;;
11927;SDS011;6023;47.070;15.126;2023-03-13T05:25:44;7.77;;;3.87;;
11927;SDS011;6023;47.070;15.126;2023-03-13T05:28:12;6.00;;;3.90;;
11927;SDS011;6023;47.070;15.126;2023-03-13T05:30:41;8.27;;;5.87;;
11927;SDS011;6023;47.070;15.126;2023-03-13T05:33:11;13.17;;;10.07;;
11927;SDS011;6023;47.070;15.126;2023-03-13T05:35:39;12.57;;;9.50;;
11927;SDS011;6023;47.070;15.126;2023-03-13T05:38:07;14.23;;;9.87;;
11927;SDS011;6023;47.070;15.126;2023-03-13T05:40:36;18.47;;;13.63;;
11927;SDS011;6023;47.070;15.126;2023-03-13T05:43:04;13.33;;;9.50;;
11927;SDS011;6023;47.070;15.126;2023-03-13T05:45:33;10.10;;;7.70;;
11927;SDS011;6023;47.070;15.126;2023-03-13T05:48:02;10.90;;;7.37;;
11927;SDS011;6023;47.070;15.126;2023-03-13T05:50:32;7.23;;;5.40;;
11927;SDS011;6023;47.070;15.126;2023-03-13T05:53:00;9.53;;;6.70;;
11927;SDS011;6023;47.070;15.126;2023-03-13T05:55:29;12.10;;;7.27;;
11927;SDS011;6023;47.070;15.126;2023-03-13T05:57:57;8.77;;;5.60;;
11927;SDS011;6023;47.070;15.126;2023-03-13T06:00:25;10.60;;;5.80;;
11927;SDS011;6023;47.070;15.126;2023-03-13T06:02:54;10.83;;;6.23;;
11927;SDS011;6023;47.070;15.126;2023-03-13T06:05:22;10.53;;;5.90;;
11927;SDS011;6023;47.070;15.126;2023-03-13T06:07:52;7.90;;;4.90;;
11927;SDS011;6023;47.070;15.126;2023-03-13T06:10:21;8.00;;;5.43;;
11927;SDS011;6023;47.070;15.126;2023-03-13T06:12:52;8.43;;;5.37;;
11927;SDS011;6023;47.070;15.126;2023-03-13T06:15:21;11.33;;;6.63;;
11927;SDS011;6023;47.070;15.126;2023-03-13T06:17:50;14.67;;;10.13;;
11927;SDS011;6023;47.070;15.126;2023-03-13T06:20:18;8.10;;;5.67;;
11927;SDS011;6023;47.070;15.126;2023-03-13T06:22:47;8.93;;;5.30;;
11927;SDS011;6023;47.070;15.126;2023-03-13T06:25:17;12.73;;;5.70;;
11927;SDS011;6023;47.070;15.126;2023-03-13T06:27:46;9.07;;;5.80;;
11927;SDS011;6023;47.070;15.126;2023-03-13T06:30:14;10.57;;;6.40;;
11927;SDS011;6023;47.070;15.126;2023-03-13T06:32:43;13.67;;;6.47;;
11927;SDS011;6023;47.070;15.126;2023-03-13T06:35:12;10.37;;;6.00;;
11927;SDS011;6023;47.070;15.126;2023-03-13T06:37:40;11.17;;;6.43;;
11927;SDS011;6023;47.070;15.126;2023-03-13T06:40:09;9.83;;;6.43;;
11927;SDS011;6023;47.070;15.126;2023-03-13T06:42:40;9.10;;;6.27;;
11927;SDS011;6023;47.070;15.126;2023-03-13T06:45:09;8.53;;;5.43;;
11927;SDS011;6023;47.070;15.126;2023-03-13T06:47:38;8.30;;;5.07;;
11927;SDS011;6023;47.070;15.126;2023-03-13T06:50:06;8.37;;;5.03;;
11927;SDS011;6023;47.070;15.126;2023-03-13T06:52:35;6.17;;;4.17;;
11927;SDS011;6023;47.070;15.126;2023-03-13T06:55:10;5.70;;;3.80;;
11927;SDS011;6023;47.070;15.126;2023-03-13T06:57:40;4.87;;;3.60;;
11927;SDS011;6023;47.070;15.126;2023-03-13T07:00:09;5.17;;;3.53;;
11927;SDS011;6023;47.070;15.126;2023-03-13T07:02:38;6.87;;;3.40;;
11927;SDS011;6023;47.070;15.126;2023-03-13T07:05:07;5.77;;;4.13;;
11927;SDS011;6023;47.070;15.126;2023-03-13T07:07:35;8.70;;;5.30;;
11927;SDS011;6023;47.070;15.126;2023-03-13T07:10:04;9.67;;;7.70;;
11927;SDS011;6023;47.070;15.126;2023-03-13T07:12:33;14.00;;;11.40;;
11927;SDS011;6023;47.070;15.126;2023-03-13T07:15:04;11.63;;;9.03;;
11927;SDS011;6023;47.070;15.126;2023-03-13T07:17:33;10.00;;;6.73;;
11927;SDS011;6023;47.070;15.126;2023-03-13T07:20:02;9.63;;;5.63;;
11927;SDS011;6023;47.070;15.126;2023-03-13T07:22:32;8.23;;;4.70;;
11927;SDS011;6023;47.070;15.126;2023-03-13T07:25:01;7.60;;;4.53;;
11927;SDS011;6023;47.070;15.126;2023-03-13T07:27:30;9.23;;;5.33;;
11927;SDS011;6023;47.070;15.126;2023-03-13T07:29:58;8.10;;;4.40;;
11927;SDS011;6023;47.070;15.126;2023-03-13T07:32:31;8.83;;;4.67;;
11927;SDS011;6023;47.070;15.126;2023-03-13T07:34:59;7.20;;;4.60;;
11927;SDS011;6023;47.070;15.126;2023-03-13T07:37:29;6.63;;;4.70;;
11927;SDS011;6023;47.070;15.126;2023-03-13T07:39:57;11.57;;;5.27;;
11927;SDS011;6023;47.070;15.126;2023-03-13T07:42:26;14.77;;;6.47;;
11927;SDS011;6023;47.070;15.126;2023-03-13T07:44:54;12.20;;;5.50;;
11927;SDS011;6023;47.070;15.126;2023-03-13T07:47:22;10.83;;;4.97;;
11927;SDS011;6023;47.070;15.126;2023-03-13T07:49:52;12.63;;;4.80;;
11927;SDS011;6023;47.070;15.126;2023-03-13T07:52:21;8.40;;;4.60;;
11927;SDS011;6023;47.070;15.126;2023-03-13T07:54:49;7.13;;;4.13;;
11927;SDS011;6023;47.070;15.126;2023-03-13T07:57:18;6.13;;;4.00;;
11927;SDS011;6023;47.070;15.126;2023-03-13T07:59:46;6.87;;;4.23;;
11927;SDS011;6023;47.070;15.126;2023-03-13T08:02:15;6.10;;;4.23;;
11927;SDS011;6023;47.070;15.126;2023-03-13T08:04:43;9.77;;;5.00;;
11927;SDS011;6023;47.070;15.126;2023-03-13T08:07:13;7.67;;;4.60;;
11927;SDS011;6023;47.070;15.126;2023-03-13T08:09:42;9.43;;;5.13;;
11927;SDS011;6023;47.070;15.126;2023-03-13T08:12:10;10.50;;;4.70;;
11927;SDS011;6023;47.070;15.126;2023-03-13T08:14:39;9.47;;;4.87;;
11927;SDS011;6023;47.070;15.126;2023-03-13T08:17:07;8.77;;;5.20;;
11927;SDS011;6023;47.070;15.126;2023-03-13T08:19:36;8.50;;;4.90;;
11927;SDS011;6023;47.070;15.126;2023-03-13T08:22:04;10.57;;;4.90;;
11927;SDS011;6023;47.070;15.126;2023-03-13T08:24:34;9.03;;;4.60;;
11927;SDS011;6023;47.070;15.126;2023-03-13T08:27:03;9.07;;;4.90;;
11927;SDS011;6023;47.070;15.126;2023-03-13T08:29:31;7.17;;;4.63;;
11927;SDS011;6023;47.070;15.126;2023-03-13T08:32:00;8.30;;;4.50;;
11927;SDS011;6023;47.070;15.126;2023-03-13T08:34:29;8.70;;;4.40;;
11927;SDS011;6023;47.070;15.126;2023-03-13T08:36:57;7.93;;;4.63;;
11927;SDS011;6023;47.070;15.126;2023-03-13T08:39:26;7.67;;;5.40;;
11927;SDS011;6023;47.070;15.126;2023-03-13T08:41:56;12.10;;;5.80;;
11927;SDS011;6023;47.070;15.126;2023-03-13T08:44:24;10.40;;;6.57;;
11927;SDS011;6023;47.070;15.126;2023-03-13T08:46:53;9.50;;;6.10;;
11927;SDS011;6023;47.070;15.126;2023-03-13T08:49:22;11.43;;;6.13;;
11927;SDS011;6023;47.070;15.126;2023-03-13T08:51:50;11.63;;;5.83;;
11927;SDS011;6023;47.070;15.126;2023-03-13T08:54:19;12.00;;;6.10;;
11927;SDS011;6023;47.070;15.126;2023-03-13T08:56:47;9.60;;;4.77;;
11927;SDS011;6023;47.070;15.126;2023-03-13T08:59:17;7.17;;;4.30;;
11927;SDS011;6023;47.070;15.126;2023-03-13T09:01:46;10.30;;;4.50;;
11927;SDS011;6023;47.070;15.126;2023-03-13T09:04:14;6.97;;;4.60;;
11927;SDS011;6023;47.070;15.126;2023-03-13T09:06:43;5.53;;;3.90;;
11927;SDS011;6023;47.070;15.126;2023-03-13T09:09:12;6.53;;;3.83;;
11927;SDS011;6023;47.070;15.126;2023-03-13T09:11:41;7.77;;;3.87;;
11927;SDS011;6023;47.070;15.126;2023-03-13T09:14:10;7.07;;;4.00;;
11927;SDS011;6023;47.070;15.126;2023-03-13T09:16:39;9.37;;;5.93;;
11927;SDS011;6023;47.070;15.126;2023-03-13T09:19:08;11.40;;;8.00;;
11927;SDS011;6023;47.070;15.126;2023-03-13T09:21:36;19.37;;;13.23;;
11927;SDS011;6023;47.070;15.126;2023-03-13T09:24:05;13.40;;;9.67;;
11927;SDS011;6023;47.070;15.126;2023-03-13T09:26:34;7.27;;;3.77;;
11927;SDS011;6023;47.070;15.126;2023-03-13T09:29:04;11.37;;;9.03;;
11927;SDS011;6023;47.070;15.126;2023-03-13T09:31:32;5.90;;;3.97;;
11927;SDS011;6023;47.070;15.126;2023-03-13T09:34:02;6.00;;;3.27;;
11927;SDS011;6023;47.070;15.126;2023-03-13T09:36:31;5.73;;;3.37;;
11927;SDS011;6023;47.070;15.126;2023-03-13T09:38:59;5.67;;;2.87;;
11927;SDS011;6023;47.070;15.126;2023-03-13T09:41:31;4.43;;;2.53;;
11927;SDS011;6023;47.070;15.126;2023-03-13T09:44:03;3.53;;;2.70;;
11927;SDS011;6023;47.070;15.126;2023-03-13T09:46:40;6.50;;;2.90;;
11927;SDS011;6023;47.070;15.126;2023-03-13T09:49:15;4.47;;;2.90;;
11927;SDS011;6023;47.070;15.126;2023-03-13T09:51:51;4.50;;;2.93;;
11927;SDS011;6023;47.070;15.126;2023-03-13T09:54:23;5.23;;;3.10;;
11927;SDS011;6023;47.070;15.126;2023-03-13T09:56:54;5.07;;;3.30;;
11927;SDS011;6023;47.070;15.126;2023-03-13T09:59:26;6.23;;;3.50;;
11927;SDS011;6023;47.070;15.126;2023-03-13T10:01:57;4.50;;;3.13;;
11927;SDS011;6023;47.070;15.126;2023-03-13T10:04:29;5.90;;;3.27;;
11927;SDS011;6023;47.070;15.126;2023-03-13T10:07:01;5.03;;;3.53;;
11927;SDS011;6023;47.070;15.126;2023-03-13T10:09:30;6.23;;;3.57;;
11927;SDS011;6023;47.070;15.126;2023-03-13T10:12:03;4.50;;;3.53;;
11927;SDS011;6023;47.070;15.126;2023-03-13T10:14:37;4.33;;;3.30;;
11927;SDS011;6023;47.070;15.126;2023-03-13T10:17:14;5.60;;;3.43;;
11927;SDS011;6023;47.070;15.126;2023-03-13T10:19:53;7.53;;;4.80;;
11927;SDS011;6023;47.070;15.126;2023-03-13T10:22:25;6.17;;;4.33;;
11927;SDS011;6023;47.070;15.126;2023-03-13T10:24:57;4.47;;;3.37;;
11927;SDS011;6023;47.070;15.126;2023-03-13T10:27:27;4.50;;;3.40;;
11927;SDS011;6023;47.070;15.126;2023-03-13T10:29:55;5.83;;;3.30;;
11927;SDS011;6023;47.070;15.126;2023-03-13T10:32:25;4.53;;;3.20;;
11927;SDS011;6023;47.070;15.126;2023-03-13T10:34:56;4.40;;;3.30;;
11927;SDS011;6023;47.070;15.126;2023-03-13T10:37:27;8.33;;;3.50;;
11927;SDS011;6023;47.070;15.126;2023-03-13T10:40:11;7.23;;;3.67;;
11927;SDS011;6023;47.070;15.126;2023-03-13T10:42:41;5.17;;;3.57;;
11927;SDS011;6023;47.070;15.126;2023-03-13T10:45:13;4.17;;;3.43;;
11927;SDS011;6023;47.070;15.126;2023-03-13T10:47:43;5.53;;;3.70;;
11927;SDS011;6023;47.070;15.126;2023-03-13T10:50:18;5.30;;;3.47;;
11927;SDS011;6023;47.070;15.126;2023-03-13T10:52:49;4.73;;;3.33;;
11927;SDS011;6023;47.070;15.126;2023-03-13T10:55:19;4.47;;;3.40;;
11927;SDS011;6023;47.070;15.126;2023-03-13T10:57:53;4.40;;;3.47;;
11927;SDS011;6023;47.070;15.126;2023-03-13T11:00:29;5.63;;;3.83;;
11927;SDS011;6023;47.070;15.126;2023-03-13T11:03:01;6.13;;;3.73;;
11927;SDS011;6023;47.070;15.126;2023-03-13T11:05:37;4.93;;;3.57;;
11927;SDS011;6023;47.070;15.126;2023-03-13T11:08:17;5.23;;;3.20;;
11927;SDS011;6023;47.070;15.126;2023-03-13T11:10:55;4.60;;;3.20;;
11927;SDS011;6023;47.070;15.126;2023-03-13T11:13:29;4.00;;;3.20;;
11927;SDS011;6023;47.070;15.126;2023-03-13T11:16:09;3.40;;;2.73;;
11927;SDS011;6023;47.070;15.126;2023-03-13T11:18:55;3.03;;;2.70;;
11927;SDS011;6023;47.070;15.126;2023-03-13T11:21:46;4.00;;;2.80;;
11927;SDS011;6023;47.070;15.126;2023-03-13T11:24:19;3.70;;;2.73;;
11927;SDS011;6023;47.070;15.126;2023-03-13T11:26:53;4.20;;;2.90;;
11927;SDS011;6023;47.070;15.126;2023-03-13T11:29:33;5.40;;;3.20;;
11927;SDS011;6023;47.070;15.126;2023-03-13T11:32:10;3.77;;;3.03;;
11927;SDS011;6023;47.070;15.126;2023-03-13T11:34:44;4.17;;;2.90;;
11927;SDS011;6023;47.070;15.126;2023-03-13T11:37:16;3.47;;;2.40;;
11927;SDS011;6023;47.070;15.126;2023-03-13T11:39:51;3.47;;;2.67;;
11927;SDS011;6023;47.070;15.126;2023-03-13T11:42:35;3.73;;;2.63;;
11927;SDS011;6023;47.070;15.126;2023-03-13T11:45:13;4.40;;;2.80;;
11927;SDS011;6023;47.070;15.126;2023-03-13T11:47:55;2.90;;;2.60;;
11927;SDS011;6023;47.070;15.126;2023-03-13T11:50:34;3.47;;;2.50;;
11927;SDS011;6023;47.070;15.126;2023-03-13T11:53:13;3.40;;;2.40;;
11927;SDS011;6023;47.070;15.126;2023-03-13T11:55:55;2.47;;;2.27;;
11927;SDS011;6023;47.070;15.126;2023-03-13T11:58:44;3.50;;;2.60;;
11927;SDS011;6023;47.070;15.126;2023-03-13T12:01:29;3.43;;;2.80;;
11927;SDS011;6023;47.070;15.126;2023-03-13T12:04:00;4.93;;;2.87;;
11927;SDS011;6023;47.070;15.126;2023-03-13T12:06:33;2.70;;;2.47;;
11927;SDS011;6023;47.070;15.126;2023-03-13T12:09:05;3.37;;;2.70;;
11927;SDS011;6023;47.070;15.126;2023-03-13T12:11:39;3.03;;;2.50;;
11927;SDS011;6023;47.070;15.126;2023-03-13T12:14:14;3.07;;;2.77;;
11927;SDS011;6023;47.070;15.126;2023-03-13T12:16:46;3.90;;;2.27;;
11927;SDS011;6023;47.070;15.126;2023-03-13T12:19:18;4.80;;;3.00;;
11927;SDS011;6023;47.070;15.126;2023-03-13T12:21:50;3.50;;;2.93;;
11927;SDS011;6023;47.070;15.126;2023-03-13T12:24:25;4.13;;;3.00;;
11927;SDS011;6023;47.070;15.126;2023-03-13T12:26:56;3.90;;;2.90;;
11927;SDS011;6023;47.070;15.126;2023-03-13T12:29:36;3.50;;;2.93;;
11927;SDS011;6023;47.070;15.126;2023-03-13T12:32:09;3.30;;;3.00;;
11927;SDS011;6023;47.070;15.126;2023-03-13T12:34:44;4.70;;;3.03;;
11927;SDS011;6023;47.070;15.126;2023-03-13T12:37:20;5.63;;;3.50;;
11927;SDS011;6023;47.070;15.126;2023-03-13T12:39:55;4.00;;;3.13;;
11927;SDS011;6023;47.070;15.126;2023-03-13T12:42:30;5.17;;;3.70;;
11927;SDS011;6023;47.070;15.126;2023-03-13T12:45:06;5.33;;;3.30;;
11927;SDS011;6023;47.070;15.126;2023-03-13T12:47:38;5.23;;;3.60;;
11927;SDS011;6023;47.070;15.126;2023-03-13T12:50:26;3.87;;;2.90;;
11927;SDS011;6023;47.070;15.126;2023-03-13T12:56:12;4.47;;;3.07;;
11927;SDS011;6023;47.070;15.126;2023-03-13T12:58:46;3.97;;;3.17;;
11927;SDS011;6023;47.070;15.126;2023-03-13T13:01:18;3.20;;;2.67;;
11927;SDS011;6023;47.070;15.126;2023-03-13T13:03:55;3.83;;;2.80;;
11927;SDS011;6023;47.070;15.126;2023-03-13T13:06:25;3.37;;;2.80;;
11927;SDS011;6023;47.070;15.126;2023-03-13T13:09:02;3.70;;;2.70;;
11927;SDS011;6023;47.070;15.126;2023-03-13T13:17:28;5.83;;;3.27;;
11927;SDS011;6023;47.070;15.126;2023-03-13T13:35:18;5.53;;;3.50;;
11927;SDS011;6023;47.070;15.126;2023-03-13T13:37:48;4.97;;;3.27;;
11927;SDS011;6023;47.070;15.126;2023-03-13T13:40:21;4.20;;;3.07;;
11927;SDS011;6023;47.070;15.126;2023-03-13T13:42:53;3.17;;;2.77;;
11927;SDS011;6023;47.070;15.126;2023-03-13T13:45:27;3.50;;;2.73;;
11927;SDS011;6023;47.070;15.126;2023-03-13T13:48:13;4.27;;;3.10;;
11927;SDS011;6023;47.070;15.126;2023-03-13T13:51:20;3.20;;;2.90;;
11927;SDS011;6023;47.070;15.126;2023-03-13T13:53:52;4.67;;;3.30;;
11927;SDS011;6023;47.070;15.126;2023-03-13T13:56:38;8.17;;;6.60;;
11927;SDS011;6023;47.070;15.126;2023-03-13T14:05:03;4.50;;;3.30;;
11927;SDS011;6023;47.070;15.126;2023-03-13T14:07:47;4.33;;;3.20;;
11927;SDS011;6023;47.070;15.126;2023-03-13T14:10:27;4.50;;;3.00;;
11927;SDS011;6023;47.070;15.126;2023-03-13T14:13:01;4.27;;;3.30;;
11927;SDS011;6023;47.070;15.126;2023-03-13T14:15:31;5.17;;;3.67;;
11927;SDS011;6023;47.070;15.126;2023-03-13T14:18:08;4.80;;;3.80;;
11927;SDS011;6023;47.070;15.126;2023-03-13T14:20:40;3.70;;;3.40;;
11927;SDS011;6023;47.070;15.126;2023-03-13T14:23:34;5.23;;;3.27;;
11927;SDS011;6023;47.070;15.126;2023-03-13T14:26:08;5.20;;;3.67;;
11927;SDS011;6023;47.070;15.126;2023-03-13T14:28:39;5.47;;;3.50;;
11927;SDS011;6023;47.070;15.126;2023-03-13T14:31:09;4.00;;;3.50;;
11927;SDS011;6023;47.070;15.126;2023-03-13T14:33:38;3.53;;;3.10;;
11927;SDS011;6023;47.070;15.126;2023-03-13T14:36:08;3.90;;;3.13;;
11927;SDS011;6023;47.070;15.126;2023-03-13T14:38:38;3.87;;;3.00;;
11927;SDS011;6023;47.070;15.126;2023-03-13T14:41:19;7.93;;;6.07;;
11927;SDS011;6023;47.070;15.126;2023-03-13T14:43:50;5.97;;;3.27;;
11927;SDS011;6023;47.070;15.126;2023-03-13T14:46:21;4.97;;;3.73;;
11927;SDS011;6023;47.070;15.126;2023-03-13T14:48:54;3.60;;;2.83;;
11927;SDS011;6023;47.070;15.126;2023-03-13T14:51:24;3.70;;;3.17;;
11927;SDS011;6023;47.070;15.126;2023-03-13T14:53:54;7.20;;;5.60;;
11927;SDS011;6023;47.070;15.126;2023-03-13T14:56:29;5.77;;;3.83;;
11927;SDS011;6023;47.070;15.126;2023-03-13T14:59:14;4.10;;;3.20;;
11927;SDS011;6023;47.070;15.126;2023-03-13T15:01:43;3.00;;;2.70;;
11927;SDS011;6023;47.070;15.126;2023-03-13T15:04:12;4.40;;;2.90;;
11927;SDS011;6023;47.070;15.126;2023-03-13T15:06:42;3.60;;;2.60;;
11927;SDS011;6023;47.070;15.126;2023-03-13T15:09:15;3.20;;;2.90;;
11927;SDS011;6023;47.070;15.126;2023-03-13T15:11:53;8.20;;;6.10;;
11927;SDS011;6023;47.070;15.126;2023-03-13T15:14:33;4.80;;;3.50;;
11927;SDS011;6023;47.070;15.126;2023-03-13T15:17:08;3.93;;;3.03;;
11927;SDS011;6023;47.070;15.126;2023-03-13T15:19:40;3.90;;;3.50;;
11927;SDS011;6023;47.070;15.126;2023-03-13T15:22:14;4.03;;;3.10;;
11927;SDS011;6023;47.070;15.126;2023-03-13T15:24:43;3.97;;;3.50;;
11927;SDS011;6023;47.070;15.126;2023-03-13T15:27:30;4.93;;;3.50;;
11927;SDS011;6023;47.070;15.126;2023-03-13T15:29:59;4.60;;;3.13;;
11927;SDS011;6023;47.070;15.126;2023-03-13T15:32:28;4.60;;;3.70;;
11927;SDS011;6023;47.070;15.126;2023-03-13T15:34:57;3.93;;;3.40;;
11927;SDS011;6023;47.070;15.126;2023-03-13T15:37:29;3.97;;;3.40;;
11927;SDS011;6023;47.070;15.126;2023-03-13T15:39:58;5.97;;;4.23;;